Terminal Aerodrome Forecast
Issued by NWS Louisville, KY

Home | Current Version | Previous Version | Text Only | Print | Product List | Glossary On
Versions: 1 2 3 4 5 6 7 8 9 10 11 12 13 14 15 16 17 18 19 20 21 22
000
FTUS43 KLMK 262100 AAC
TAFSDF
TAF AMD
KSDF 262126Z 2621/2724 20012KT P6SM VCSH BKN040
     FM262300 20012KT P6SM BKN040
     FM270700 21008KT P6SM BKN025
     FM271500 22005KT P6SM BKN035=

USA.gov is the U.S. government's official web portal to all federal, state and local government web resources and services.